createdAt,value
2023-05-10T00:03:13.065Z,99288.31
2023-05-10T00:08:14.722Z,99296.41
2023-05-10T00:13:16.757Z,99287.41
2023-05-10T00:18:18.395Z,99317.44
2023-05-10T00:23:20.272Z,99302.53
2023-05-10T00:28:21.951Z,99290.00
2023-05-10T00:33:23.633Z,99336.34
2023-05-10T00:38:25.596Z,99315.72
2023-05-10T00:43:27.315Z,99333.25
2023-05-10T00:48:30.394Z,99301.81
2023-05-10T00:53:33.429Z,99338.81
2023-05-10T00:58:35.142Z,99299.94
2023-05-10T01:03:39.023Z,99338.31
2023-05-10T01:08:41.137Z,99350.13
2023-05-10T01:13:44.587Z,99333.66
2023-05-10T01:18:46.667Z,99336.59
2023-05-10T01:24:06.791Z,99373.13
2023-05-10T01:29:44.653Z,99339.41
2023-05-10T01:35:00.813Z,99315.69
2023-05-10T01:40:08.229Z,99323.19
2023-05-10T01:45:26.701Z,99313.88
2023-05-10T01:50:31.093Z,99315.66
2023-05-10T01:55:37.141Z,99354.91
2023-05-10T02:00:43.962Z,99229.56
2023-05-10T02:05:47.865Z,99293.38
2023-05-10T02:10:52.554Z,99305.34
2023-05-10T02:15:55.376Z,99367.91
2023-05-10T02:20:59.040Z,99360.69
2023-05-10T02:26:02.925Z,99385.72
2023-05-10T02:31:06.241Z,99354.19
2023-05-10T02:36:09.990Z,99384.28
2023-05-10T02:41:13.165Z,99417.03
2023-05-10T02:46:14.853Z,99370.38
2023-05-10T02:51:19.235Z,99335.97
2023-05-10T02:56:34.272Z,99381.13
2023-05-10T03:01:36.131Z,99344.50
2023-05-10T03:06:37.826Z,99382.72
2023-05-10T03:11:49.957Z,99356.03
2023-05-10T03:17:05.293Z,99330.38
2023-05-10T03:22:11.617Z,99373.06
2023-05-10T03:27:15.905Z,99412.13
2023-05-10T03:32:17.535Z,99362.00
2023-05-10T03:37:19.121Z,99414.06
2023-05-10T03:42:20.817Z,99393.94
2023-05-10T03:47:22.474Z,99416.13
2023-05-10T03:52:24.037Z,99396.63
2023-05-10T03:57:25.705Z,99426.13
2023-05-10T04:02:27.465Z,99372.13
2023-05-10T04:07:29.509Z,99371.38
2023-05-10T04:12:31.065Z,99389.09
2023-05-10T04:17:32.677Z,99373.88
2023-05-10T04:22:34.214Z,99400.59
2023-05-10T04:27:35.786Z,99402.53
2023-05-10T04:32:37.461Z,99315.44
2023-05-10T04:37:39.053Z,99423.28
2023-05-10T04:42:44.898Z,99412.34
2023-05-10T04:47:46.492Z,99401.84
2023-05-10T04:52:48.087Z,99410.47
2023-05-10T04:57:49.764Z,99410.16
2023-05-10T05:02:51.406Z,99445.88
2023-05-10T05:07:53.141Z,99419.78
2023-05-10T05:12:54.767Z,99415.63
2023-05-10T05:17:56.419Z,99395.59
2023-05-10T05:22:58.083Z,99413.31
2023-05-10T05:27:59.694Z,99476.03
2023-05-10T05:33:01.348Z,99477.44
2023-05-10T05:38:02.915Z,99539.88
2023-05-10T05:43:04.595Z,99409.22
2023-05-10T05:48:06.343Z,99439.84
2023-05-10T05:53:07.921Z,99443.63
2023-05-10T05:58:09.455Z,99427.75
2023-05-10T06:03:11.595Z,99473.25
2023-05-10T06:08:13.230Z,99462.00
2023-05-10T06:13:14.880Z,99459.50
2023-05-10T06:18:16.454Z,99414.59
2023-05-10T06:23:18.164Z,99484.84
2023-05-10T06:28:19.731Z,99522.47
2023-05-10T06:33:21.294Z,99481.28
2023-05-10T06:38:23.030Z,99525.59
2023-05-10T06:43:25.855Z,99421.56
2023-05-10T06:48:27.429Z,99493.75
2023-05-10T06:53:29.036Z,99513.22
2023-05-10T06:58:30.613Z,99507.31
2023-05-10T07:03:32.878Z,99428.44
2023-05-10T07:08:35.334Z,99493.34
2023-05-10T07:13:37.478Z,99533.25
2023-05-10T07:18:39.122Z,99519.66
2023-05-10T07:23:42.074Z,99523.22
2023-05-10T07:28:44.515Z,99545.72
2023-05-10T07:33:46.831Z,99530.16
2023-05-10T07:38:48.441Z,99586.19
2023-05-10T07:43:50.038Z,99523.59
2023-05-10T07:48:51.660Z,99493.22
2023-05-10T07:53:53.375Z,99501.63
2023-05-10T07:58:55.379Z,99452.19
2023-05-10T08:03:57.041Z,99493.41
2023-05-10T08:08:58.714Z,99533.66
2023-05-10T08:14:00.313Z,99487.41
2023-05-10T08:19:02.085Z,99513.94
2023-05-10T08:24:03.805Z,99490.16
2023-05-10T08:29:05.794Z,99488.00
2023-05-10T08:34:07.471Z,99517.41
2023-05-10T08:39:16.253Z,99532.75
2023-05-10T08:44:25.069Z,99535.50
2023-05-10T08:49:28.714Z,99476.47
2023-05-10T08:54:31.995Z,99521.09
2023-05-10T08:59:34.176Z,99551.00
2023-05-10T09:04:36.226Z,99530.19
2023-05-10T11:51:48.359Z,99631.00
2023-05-10T11:56:51.099Z,99609.72
2023-05-10T12:01:52.863Z,99596.50
2023-05-10T12:06:54.701Z,99565.25
2023-05-10T12:12:00.538Z,99529.19
2023-05-10T12:17:02.125Z,99613.69
2023-05-10T12:22:06.380Z,99623.63
2023-05-10T12:27:09.705Z,99615.34
2023-05-10T12:32:11.595Z,99639.09
2023-05-10T12:37:13.449Z,99599.34
2023-05-10T12:42:15.006Z,99589.69
2023-05-10T12:47:16.598Z,99612.31
2023-05-10T12:52:18.173Z,99537.94
2023-05-10T12:57:21.241Z,99605.66
2023-05-10T13:02:24.105Z,99571.16
2023-05-10T13:07:25.708Z,99478.56
2023-05-10T13:12:27.360Z,99542.66
2023-05-10T13:17:28.919Z,99574.25
2023-05-10T13:22:39.603Z,99477.38
2023-05-10T13:27:41.971Z,99509.06
2023-05-10T13:32:43.585Z,99452.97
2023-05-10T13:37:45.206Z,99536.97
2023-05-10T13:42:46.987Z,99508.75
2023-05-10T13:47:48.560Z,99489.72
2023-05-10T13:52:50.181Z,99526.84
2023-05-10T13:57:51.753Z,99496.00
2023-05-10T14:02:53.420Z,99463.91
2023-05-10T14:07:55.097Z,99472.78
2023-05-10T14:12:59.737Z,99467.84
2023-05-10T14:18:01.572Z,99388.34
2023-05-10T14:23:03.462Z,99421.72
2023-05-10T14:28:05.350Z,99428.88
2023-05-10T14:33:07.006Z,99425.94
2023-05-10T14:38:08.711Z,99403.81
2023-05-10T14:43:10.301Z,99410.94
2023-05-10T14:48:16.318Z,99379.16
2023-05-10T14:53:17.994Z,99375.38
2023-05-10T14:58:19.531Z,99410.81
2023-05-10T15:03:21.248Z,99412.63
2023-05-10T15:08:24.848Z,99420.16
2023-05-10T15:13:26.427Z,99384.97
2023-05-10T15:18:28.033Z,99449.09
2023-05-10T15:23:30.847Z,99440.94
2023-05-10T15:28:34.226Z,99415.50
2023-05-10T15:33:37.997Z,99445.09
2023-05-10T15:38:39.613Z,99438.13
2023-05-10T15:43:41.614Z,99445.44
2023-05-10T15:48:43.600Z,99410.75
2023-05-10T15:54:00.528Z,99405.47
2023-05-10T15:59:08.749Z,99444.78
2023-05-10T16:04:10.443Z,99407.66
2023-05-10T16:09:12.132Z,99381.88
2023-05-10T16:14:13.838Z,99421.88
2023-05-10T16:19:15.987Z,99419.16
2023-05-10T16:24:17.730Z,99431.97
2023-05-10T16:29:19.285Z,99426.34
2023-05-10T16:34:24.241Z,99425.56
2023-05-10T16:39:26.014Z,99408.09
2023-05-10T16:44:27.773Z,99414.97
2023-05-10T16:49:29.377Z,99375.13
2023-05-10T16:54:31.300Z,99446.25
2023-05-10T16:59:32.894Z,99354.34
2023-05-10T17:04:34.978Z,99343.84
2023-05-10T17:09:36.676Z,99366.13
2023-05-10T17:14:38.489Z,99432.78
2023-05-10T17:19:40.278Z,99420.31
2023-05-10T17:24:41.877Z,99404.38
2023-05-10T17:29:43.554Z,99430.25
2023-05-10T17:34:45.152Z,99427.69
2023-05-10T17:39:46.828Z,99416.41
2023-05-10T17:44:48.537Z,99398.91
2023-05-10T17:49:50.343Z,99428.06
2023-05-10T17:54:53.316Z,99441.22
2023-05-10T17:59:54.962Z,99436.09
2023-05-10T18:04:59.133Z,99453.91
2023-05-10T18:10:01.673Z,99440.06
2023-05-10T18:15:03.668Z,99411.47
2023-05-10T18:20:06.210Z,99401.91
2023-05-10T18:25:08.238Z,99386.56
2023-05-10T18:30:12.293Z,99447.00
2023-05-10T18:35:14.190Z,99367.78
2023-05-10T18:40:17.533Z,99442.56
2023-05-10T18:45:19.521Z,99465.19
2023-05-10T18:50:21.512Z,99471.25
2023-05-10T18:55:25.831Z,99464.59
2023-05-10T19:00:27.485Z,99469.06
2023-05-10T19:05:29.976Z,99426.66
2023-05-10T19:10:31.535Z,99484.69
2023-05-10T19:15:33.172Z,99480.88
2023-05-10T19:20:36.204Z,99496.09
2023-05-10T19:25:39.245Z,99479.75
2023-05-10T19:30:40.992Z,99487.84
2023-05-10T19:35:42.747Z,99496.81
2023-05-10T19:40:45.098Z,99498.63
2023-05-10T19:45:46.746Z,99505.38
2023-05-10T19:50:48.364Z,99501.47
2023-05-10T19:55:50.045Z,99513.59
2023-05-10T20:00:51.700Z,99534.66
2023-05-10T20:05:53.403Z,99518.28
2023-05-10T20:10:57.721Z,99555.03
2023-05-10T20:15:59.892Z,99554.59
2023-05-10T20:21:01.581Z,99514.81
2023-05-10T20:26:03.674Z,99539.94
2023-05-10T20:31:05.368Z,99557.97
2023-05-10T20:36:09.557Z,99530.09
2023-05-10T20:41:11.191Z,99558.66
2023-05-10T20:46:13.082Z,99571.16
2023-05-10T20:51:14.810Z,99563.72
2023-05-10T20:56:16.621Z,99515.69
2023-05-10T21:01:18.345Z,99553.78
2023-05-10T21:06:20.024Z,99554.50
2023-05-10T21:11:22.445Z,99567.78
2023-05-10T21:16:24.098Z,99572.50
2023-05-10T21:21:25.924Z,99557.53
2023-05-10T21:26:27.486Z,99562.78
2023-05-10T21:31:29.127Z,99546.13
2023-05-10T21:36:30.859Z,99526.88
2023-05-10T21:41:32.429Z,99567.22
2023-05-10T21:46:34.236Z,99497.66
2023-05-10T21:51:35.866Z,99571.50
2023-05-10T21:56:37.622Z,99565.75
2023-05-10T22:01:39.670Z,99499.84
2023-05-10T22:06:41.392Z,99539.22
2023-05-10T22:11:43.036Z,99545.69
2023-05-10T22:16:44.864Z,99563.00
2023-05-10T22:21:46.601Z,99573.84
2023-05-10T22:26:48.241Z,99572.53
2023-05-10T22:31:50.166Z,99545.78
2023-05-10T22:36:51.831Z,99470.19
2023-05-10T22:41:53.451Z,99547.69
2023-05-10T22:46:55.142Z,99565.41
2023-05-10T22:51:56.753Z,99586.25
2023-05-10T22:56:58.356Z,99583.09
2023-05-10T23:01:59.974Z,99538.38
2023-05-10T23:07:01.590Z,99588.94
2023-05-10T23:12:03.410Z,99597.66
2023-05-10T23:17:05.067Z,99583.88
2023-05-10T23:22:06.704Z,99595.66
2023-05-10T23:27:08.330Z,99609.00
2023-05-10T23:32:10.101Z,99611.72
2023-05-10T23:37:11.714Z,99623.44
2023-05-10T23:42:13.417Z,99600.81
2023-05-10T23:47:15.053Z,99621.56
2023-05-10T23:52:17.611Z,99607.16
2023-05-10T23:57:19.406Z,99605.88
